ホノルル の空港の天気 - METARとTAF

ホノルル国際空港 ( PHNL / HNL ) - アメリカ ハワイ州ホノルル
飛行場実況気象(Metar)
観測時間03/21 13:53 HST (03/21 23:53 UTC)
風向・風速北東 6m/s
視程10km以上
天気現象
少しの雲 雲底高度 1460m
気温28.9℃
湿度41%
気圧1017.9hPa
METARPHNL 212353Z 05012KT 10SM FEW048 29/14 A3006 RMK AO2 SLP179 T02890144 10294 20222 58019
過去の天気等 Google飛行場航空写真 Wunderground天気予報

過去48時間のMETAR

飛行場予報(TAF)
発表時間: 3/21 13:55 HST (3/21 23:55 UTC)
予報対象時間: 21日14時 HST ~ 22日20時 HST
風向・風速東北東 7m/s 瞬間風速 10m/s
視程10km以上
少しの雲 雲底高度 760m
全天の4割程度の雲 雲底高度 1370m
21日20時 HST から
風向・風速東北東 4m/s
視程10km以上
少しの雲 雲底高度 760m
22日11時 HST から
風向・風速東北東 6m/s 瞬間風速 9m/s
視程10km以上
少しの雲 雲底高度 760m
全天の4割程度の雲 雲底高度 1370m
PHNL 212355Z 2200/2306 06014G20KT P6SM FEW025 SCT045
FM220600 06008KT P6SM FEW025
FM222100 06012G18KT P6SM FEW025 SCT045